sensor_id;sensor_type;location;lat;lon;timestamp;temperature;humidity
29031;DHT22;16122;50.236;11.734;2023-04-24T00:00:09;17.80;72.40
29031;DHT22;16122;50.236;11.734;2023-04-24T00:02:37;17.80;72.40
29031;DHT22;16122;50.236;11.734;2023-04-24T00:05:07;17.80;72.30
29031;DHT22;16122;50.236;11.734;2023-04-24T00:07:34;17.80;72.30
29031;DHT22;16122;50.236;11.734;2023-04-24T00:09:59;17.70;72.20
29031;DHT22;16122;50.236;11.734;2023-04-24T00:12:26;17.70;72.10
29031;DHT22;16122;50.236;11.734;2023-04-24T00:14:53;17.80;72.20
29031;DHT22;16122;50.236;11.734;2023-04-24T00:17:19;17.70;72.10
29031;DHT22;16122;50.236;11.734;2023-04-24T00:19:48;17.70;72.10
29031;DHT22;16122;50.236;11.734;2023-04-24T00:22:16;17.70;72.00
29031;DHT22;16122;50.236;11.734;2023-04-24T00:24:41;17.70;72.10
29031;DHT22;16122;50.236;11.734;2023-04-24T00:27:07;17.70;72.00
29031;DHT22;16122;50.236;11.734;2023-04-24T00:29:33;17.70;72.00
29031;DHT22;16122;50.236;11.734;2023-04-24T00:31:59;17.70;71.90
29031;DHT22;16122;50.236;11.734;2023-04-24T00:34:25;17.70;71.90
29031;DHT22;16122;50.236;11.734;2023-04-24T00:36:51;17.70;71.90
29031;DHT22;16122;50.236;11.734;2023-04-24T00:39:19;17.70;71.90
29031;DHT22;16122;50.236;11.734;2023-04-24T00:41:45;17.70;71.80
29031;DHT22;16122;50.236;11.734;2023-04-24T00:44:11;17.70;71.80
29031;DHT22;16122;50.236;11.734;2023-04-24T00:46:37;17.70;71.80
29031;DHT22;16122;50.236;11.734;2023-04-24T00:49:04;17.70;71.80
29031;DHT22;16122;50.236;11.734;2023-04-24T00:51:32;17.70;71.80
29031;DHT22;16122;50.236;11.734;2023-04-24T00:53:59;17.60;71.70
29031;DHT22;16122;50.236;11.734;2023-04-24T00:56:25;17.60;71.60
29031;DHT22;16122;50.236;11.734;2023-04-24T00:58:51;17.60;71.60
29031;DHT22;16122;50.236;11.734;2023-04-24T01:01:22;17.60;71.70
29031;DHT22;16122;50.236;11.734;2023-04-24T01:03:51;17.60;71.60
29031;DHT22;16122;50.236;11.734;2023-04-24T01:06:18;17.60;71.60
29031;DHT22;16122;50.236;11.734;2023-04-24T01:08:46;17.60;71.60
29031;DHT22;16122;50.236;11.734;2023-04-24T01:11:12;17.60;71.50
29031;DHT22;16122;50.236;11.734;2023-04-24T01:13:39;17.60;71.50
29031;DHT22;16122;50.236;11.734;2023-04-24T01:16:06;17.60;71.50
29031;DHT22;16122;50.236;11.734;2023-04-24T01:18:33;17.60;71.40
29031;DHT22;16122;50.236;11.734;2023-04-24T01:21:03;17.60;71.40
29031;DHT22;16122;50.236;11.734;2023-04-24T01:23:30;17.60;71.50
29031;DHT22;16122;50.236;11.734;2023-04-24T01:25:56;17.60;71.30
29031;DHT22;16122;50.236;11.734;2023-04-24T01:28:24;17.60;71.40
29031;DHT22;16122;50.236;11.734;2023-04-24T01:30:51;17.60;71.30
29031;DHT22;16122;50.236;11.734;2023-04-24T01:33:17;17.60;71.20
29031;DHT22;16122;50.236;11.734;2023-04-24T01:35:43;17.50;71.20
29031;DHT22;16122;50.236;11.734;2023-04-24T01:38:09;17.50;71.10
29031;DHT22;16122;50.236;11.734;2023-04-24T01:40:35;17.60;71.30
29031;DHT22;16122;50.236;11.734;2023-04-24T01:43:01;17.50;71.10
29031;DHT22;16122;50.236;11.734;2023-04-24T01:45:29;17.50;71.10
29031;DHT22;16122;50.236;11.734;2023-04-24T01:47:56;17.50;71.00
29031;DHT22;16122;50.236;11.734;2023-04-24T01:50:23;17.50;71.10
29031;DHT22;16122;50.236;11.734;2023-04-24T01:52:49;17.50;70.90
29031;DHT22;16122;50.236;11.734;2023-04-24T01:55:15;17.50;71.00
29031;DHT22;16122;50.236;11.734;2023-04-24T01:57:41;17.50;71.00
29031;DHT22;16122;50.236;11.734;2023-04-24T02:00:07;17.50;71.00
29031;DHT22;16122;50.236;11.734;2023-04-24T02:02:40;17.50;71.00
29031;DHT22;16122;50.236;11.734;2023-04-24T02:05:08;17.50;70.90
29031;DHT22;16122;50.236;11.734;2023-04-24T02:07:35;17.50;70.90
29031;DHT22;16122;50.236;11.734;2023-04-24T02:10:02;17.50;70.90
29031;DHT22;16122;50.236;11.734;2023-04-24T02:12:29;17.40;70.70
29031;DHT22;16122;50.236;11.734;2023-04-24T02:14:55;17.40;70.80
29031;DHT22;16122;50.236;11.734;2023-04-24T02:17:21;17.40;70.70
29031;DHT22;16122;50.236;11.734;2023-04-24T02:19:48;17.40;70.60
29031;DHT22;16122;50.236;11.734;2023-04-24T02:22:14;17.40;70.60
29031;DHT22;16122;50.236;11.734;2023-04-24T02:24:40;17.50;70.70
29031;DHT22;16122;50.236;11.734;2023-04-24T02:27:06;17.40;70.70
29031;DHT22;16122;50.236;11.734;2023-04-24T02:29:32;17.40;70.60
29031;DHT22;16122;50.236;11.734;2023-04-24T02:31:58;17.40;71.30
29031;DHT22;16122;50.236;11.734;2023-04-24T02:34:23;17.40;70.50
29031;DHT22;16122;50.236;11.734;2023-04-24T02:36:50;17.40;70.60
29031;DHT22;16122;50.236;11.734;2023-04-24T02:39:16;17.40;70.60
29031;DHT22;16122;50.236;11.734;2023-04-24T02:41:42;17.40;70.50
29031;DHT22;16122;50.236;11.734;2023-04-24T02:44:09;17.40;70.50
29031;DHT22;16122;50.236;11.734;2023-04-24T02:46:35;17.40;70.50
29031;DHT22;16122;50.236;11.734;2023-04-24T02:49:01;17.40;70.50
29031;DHT22;16122;50.236;11.734;2023-04-24T02:51:27;17.40;70.50
29031;DHT22;16122;50.236;11.734;2023-04-24T02:53:53;17.40;70.40
29031;DHT22;16122;50.236;11.734;2023-04-24T02:56:18;17.30;70.30
29031;DHT22;16122;50.236;11.734;2023-04-24T02:58:45;17.30;70.30
29031;DHT22;16122;50.236;11.734;2023-04-24T03:01:11;17.30;70.30
29031;DHT22;16122;50.236;11.734;2023-04-24T03:03:38;17.30;70.30
29031;DHT22;16122;50.236;11.734;2023-04-24T03:06:04;17.30;70.30
29031;DHT22;16122;50.236;11.734;2023-04-24T03:08:34;17.30;70.30
29031;DHT22;16122;50.236;11.734;2023-04-24T03:11:00;17.30;70.10
29031;DHT22;16122;50.236;11.734;2023-04-24T03:13:26;17.30;70.30
29031;DHT22;16122;50.236;11.734;2023-04-24T03:15:52;17.30;70.30
29031;DHT22;16122;50.236;11.734;2023-04-24T03:18:18;17.30;71.00
29031;DHT22;16122;50.236;11.734;2023-04-24T03:20:46;17.30;70.20
29031;DHT22;16122;50.236;11.734;2023-04-24T03:23:13;17.30;70.20
29031;DHT22;16122;50.236;11.734;2023-04-24T03:25:39;17.30;70.20
29031;DHT22;16122;50.236;11.734;2023-04-24T03:28:06;17.30;70.10
29031;DHT22;16122;50.236;11.734;2023-04-24T03:30:41;17.30;70.20
29031;DHT22;16122;50.236;11.734;2023-04-24T03:33:08;17.30;70.20
29031;DHT22;16122;50.236;11.734;2023-04-24T03:35:38;17.30;70.10
29031;DHT22;16122;50.236;11.734;2023-04-24T03:38:08;17.40;70.30
29031;DHT22;16122;50.236;11.734;2023-04-24T03:40:52;17.40;70.10
29031;DHT22;16122;50.236;11.734;2023-04-24T03:43:33;17.40;69.70
29031;DHT22;16122;50.236;11.734;2023-04-24T03:46:01;17.50;69.70
29031;DHT22;16122;50.236;11.734;2023-04-24T03:48:28;17.40;69.40
29031;DHT22;16122;50.236;11.734;2023-04-24T03:50:55;17.40;69.20
29031;DHT22;16122;50.236;11.734;2023-04-24T03:53:20;17.40;69.20
29031;DHT22;16122;50.236;11.734;2023-04-24T03:55:47;17.40;69.10
29031;DHT22;16122;50.236;11.734;2023-04-24T03:58:13;17.40;69.00
29031;DHT22;16122;50.236;11.734;2023-04-24T04:00:40;17.50;69.10
29031;DHT22;16122;50.236;11.734;2023-04-24T04:03:39;17.50;69.00
29031;DHT22;16122;50.236;11.734;2023-04-24T04:06:05;17.40;68.90
29031;DHT22;16122;50.236;11.734;2023-04-24T04:08:31;17.40;68.80
29031;DHT22;16122;50.236;11.734;2023-04-24T04:10:57;17.40;68.90
29031;DHT22;16122;50.236;11.734;2023-04-24T04:13:23;17.50;69.20
29031;DHT22;16122;50.236;11.734;2023-04-24T04:15:49;17.50;69.40
29031;DHT22;16122;50.236;11.734;2023-04-24T04:18:15;17.50;69.90
29031;DHT22;16122;50.236;11.734;2023-04-24T04:20:42;17.50;70.30
29031;DHT22;16122;50.236;11.734;2023-04-24T04:23:09;17.50;70.60
29031;DHT22;16122;50.236;11.734;2023-04-24T04:25:46;17.50;70.90
29031;DHT22;16122;50.236;11.734;2023-04-24T04:28:13;17.60;71.30
29031;DHT22;16122;50.236;11.734;2023-04-24T04:30:39;17.50;71.00
29031;DHT22;16122;50.236;11.734;2023-04-24T04:33:05;17.60;71.50
29031;DHT22;16122;50.236;11.734;2023-04-24T04:35:32;17.60;71.50
29031;DHT22;16122;50.236;11.734;2023-04-24T04:37:58;17.60;71.50
29031;DHT22;16122;50.236;11.734;2023-04-24T04:40:53;17.60;71.60
29031;DHT22;16122;50.236;11.734;2023-04-24T04:43:25;17.60;71.50
29031;DHT22;16122;50.236;11.734;2023-04-24T04:45:53;17.60;71.70
29031;DHT22;16122;50.236;11.734;2023-04-24T04:48:46;17.60;71.40
29031;DHT22;16122;50.236;11.734;2023-04-24T04:51:11;17.60;71.20
29031;DHT22;16122;50.236;11.734;2023-04-24T04:53:38;17.60;71.10
29031;DHT22;16122;50.236;11.734;2023-04-24T04:56:04;17.60;71.20
29031;DHT22;16122;50.236;11.734;2023-04-24T04:58:37;17.50;71.10
29031;DHT22;16122;50.236;11.734;2023-04-24T05:01:05;17.50;71.10
29031;DHT22;16122;50.236;11.734;2023-04-24T05:03:39;17.50;71.10
29031;DHT22;16122;50.236;11.734;2023-04-24T05:06:09;17.50;71.20
29031;DHT22;16122;50.236;11.734;2023-04-24T05:08:37;17.50;71.10
29031;DHT22;16122;50.236;11.734;2023-04-24T05:11:06;17.50;71.10
29031;DHT22;16122;50.236;11.734;2023-04-24T05:13:32;17.50;71.20
29031;DHT22;16122;50.236;11.734;2023-04-24T05:15:59;17.50;70.90
29031;DHT22;16122;50.236;11.734;2023-04-24T05:18:26;17.50;70.80
29031;DHT22;16122;50.236;11.734;2023-04-24T05:20:52;17.50;70.60
29031;DHT22;16122;50.236;11.734;2023-04-24T05:23:18;17.40;70.50
29031;DHT22;16122;50.236;11.734;2023-04-24T05:25:47;17.50;70.60
29031;DHT22;16122;50.236;11.734;2023-04-24T05:28:14;17.40;70.40
29031;DHT22;16122;50.236;11.734;2023-04-24T05:30:42;17.50;70.40
29031;DHT22;16122;50.236;11.734;2023-04-24T05:33:08;17.40;70.30
29031;DHT22;16122;50.236;11.734;2023-04-24T05:35:35;17.40;70.30
29031;DHT22;16122;50.236;11.734;2023-04-24T05:38:01;17.50;70.40
29031;DHT22;16122;50.236;11.734;2023-04-24T05:40:27;17.50;70.40
29031;DHT22;16122;50.236;11.734;2023-04-24T05:42:53;17.40;70.20
29031;DHT22;16122;50.236;11.734;2023-04-24T05:45:20;17.40;70.10
29031;DHT22;16122;50.236;11.734;2023-04-24T05:47:45;17.40;70.30
29031;DHT22;16122;50.236;11.734;2023-04-24T05:50:11;17.40;70.10
29031;DHT22;16122;50.236;11.734;2023-04-24T05:52:37;17.40;70.10
29031;DHT22;16122;50.236;11.734;2023-04-24T05:55:10;17.40;70.10
29031;DHT22;16122;50.236;11.734;2023-04-24T05:57:38;17.40;70.20
29031;DHT22;16122;50.236;11.734;2023-04-24T06:00:04;17.40;70.00
29031;DHT22;16122;50.236;11.734;2023-04-24T06:02:39;17.40;69.90
29031;DHT22;16122;50.236;11.734;2023-04-24T06:05:07;17.40;69.80
29031;DHT22;16122;50.236;11.734;2023-04-24T06:07:33;17.40;69.80
29031;DHT22;16122;50.236;11.734;2023-04-24T06:10:03;17.40;69.80
29031;DHT22;16122;50.236;11.734;2023-04-24T06:12:36;17.40;69.70
29031;DHT22;16122;50.236;11.734;2023-04-24T06:15:07;17.40;69.60
29031;DHT22;16122;50.236;11.734;2023-04-24T06:18:03;17.40;69.60
29031;DHT22;16122;50.236;11.734;2023-04-24T06:20:29;17.40;69.40
29031;DHT22;16122;50.236;11.734;2023-04-24T06:22:55;17.40;69.30
29031;DHT22;16122;50.236;11.734;2023-04-24T06:25:21;17.40;69.50
29031;DHT22;16122;50.236;11.734;2023-04-24T06:27:47;17.30;69.10
29031;DHT22;16122;50.236;11.734;2023-04-24T06:30:13;17.40;69.20
29031;DHT22;16122;50.236;11.734;2023-04-24T06:32:40;17.40;69.10
29031;DHT22;16122;50.236;11.734;2023-04-24T06:35:06;17.30;68.90
29031;DHT22;16122;50.236;11.734;2023-04-24T06:37:33;17.40;68.90
29031;DHT22;16122;50.236;11.734;2023-04-24T06:39:59;17.30;68.90
29031;DHT22;16122;50.236;11.734;2023-04-24T06:42:25;17.30;68.80
29031;DHT22;16122;50.236;11.734;2023-04-24T06:44:51;17.40;69.00
29031;DHT22;16122;50.236;11.734;2023-04-24T06:47:17;17.40;68.90
29031;DHT22;16122;50.236;11.734;2023-04-24T06:49:44;17.30;68.80
29031;DHT22;16122;50.236;11.734;2023-04-24T06:52:10;17.30;68.80
29031;DHT22;16122;50.236;11.734;2023-04-24T06:54:36;17.30;68.90
29031;DHT22;16122;50.236;11.734;2023-04-24T06:57:02;17.40;68.90
29031;DHT22;16122;50.236;11.734;2023-04-24T06:59:28;17.40;68.90
29031;DHT22;16122;50.236;11.734;2023-04-24T07:01:55;17.40;68.90
29031;DHT22;16122;50.236;11.734;2023-04-24T07:04:21;17.40;68.70
29031;DHT22;16122;50.236;11.734;2023-04-24T07:06:47;17.40;68.80
29031;DHT22;16122;50.236;11.734;2023-04-24T07:09:15;17.30;68.70
29031;DHT22;16122;50.236;11.734;2023-04-24T07:11:47;17.40;69.00
29031;DHT22;16122;50.236;11.734;2023-04-24T07:14:13;17.30;68.60
29031;DHT22;16122;50.236;11.734;2023-04-24T07:16:39;17.40;68.80
29031;DHT22;16122;50.236;11.734;2023-04-24T07:19:05;17.30;68.40
29031;DHT22;16122;50.236;11.734;2023-04-24T07:21:31;17.30;68.50
29031;DHT22;16122;50.236;11.734;2023-04-24T07:23:58;17.30;68.40
29031;DHT22;16122;50.236;11.734;2023-04-24T07:26:25;17.30;68.50
29031;DHT22;16122;50.236;11.734;2023-04-24T07:28:51;17.30;68.40
29031;DHT22;16122;50.236;11.734;2023-04-24T07:31:17;17.30;68.30
29031;DHT22;16122;50.236;11.734;2023-04-24T07:33:43;17.30;68.40
29031;DHT22;16122;50.236;11.734;2023-04-24T07:36:09;17.30;68.30
29031;DHT22;16122;50.236;11.734;2023-04-24T07:38:41;17.30;68.30
29031;DHT22;16122;50.236;11.734;2023-04-24T07:41:07;17.30;68.20
29031;DHT22;16122;50.236;11.734;2023-04-24T07:43:33;17.30;68.20
29031;DHT22;16122;50.236;11.734;2023-04-24T07:45:59;17.30;68.30
29031;DHT22;16122;50.236;11.734;2023-04-24T07:48:25;17.30;68.20
29031;DHT22;16122;50.236;11.734;2023-04-24T07:50:52;17.40;68.10
29031;DHT22;16122;50.236;11.734;2023-04-24T07:53:18;17.30;67.90
29031;DHT22;16122;50.236;11.734;2023-04-24T07:55:44;17.30;67.80
29031;DHT22;16122;50.236;11.734;2023-04-24T07:58:10;17.30;68.00
29031;DHT22;16122;50.236;11.734;2023-04-24T08:00:35;17.30;67.90
29031;DHT22;16122;50.236;11.734;2023-04-24T08:03:01;17.30;67.80
29031;DHT22;16122;50.236;11.734;2023-04-24T08:05:27;17.30;67.70
29031;DHT22;16122;50.236;11.734;2023-04-24T08:07:54;17.30;67.30
29031;DHT22;16122;50.236;11.734;2023-04-24T08:10:23;17.30;67.50
29031;DHT22;16122;50.236;11.734;2023-04-24T08:12:50;17.30;67.50
29031;DHT22;16122;50.236;11.734;2023-04-24T08:15:15;17.30;67.30
29031;DHT22;16122;50.236;11.734;2023-04-24T08:17:41;17.30;67.40
29031;DHT22;16122;50.236;11.734;2023-04-24T08:20:09;17.30;67.80
29031;DHT22;16122;50.236;11.734;2023-04-24T08:22:40;17.30;67.20
29031;DHT22;16122;50.236;11.734;2023-04-24T08:25:06;17.40;66.90
29031;DHT22;16122;50.236;11.734;2023-04-24T08:27:32;17.40;67.00
29031;DHT22;16122;50.236;11.734;2023-04-24T08:29:58;17.40;66.80
29031;DHT22;16122;50.236;11.734;2023-04-24T08:32:25;17.30;66.90
29031;DHT22;16122;50.236;11.734;2023-04-24T08:34:55;17.40;66.80
29031;DHT22;16122;50.236;11.734;2023-04-24T08:37:22;17.40;66.90
29031;DHT22;16122;50.236;11.734;2023-04-24T08:39:49;17.40;66.90
29031;DHT22;16122;50.236;11.734;2023-04-24T08:42:16;17.30;66.70
29031;DHT22;16122;50.236;11.734;2023-04-24T08:44:43;17.40;66.90
29031;DHT22;16122;50.236;11.734;2023-04-24T08:47:11;17.40;66.70
29031;DHT22;16122;50.236;11.734;2023-04-24T08:49:37;17.40;66.50
29031;DHT22;16122;50.236;11.734;2023-04-24T08:52:05;17.40;66.70
29031;DHT22;16122;50.236;11.734;2023-04-24T08:54:33;17.40;66.90
29031;DHT22;16122;50.236;11.734;2023-04-24T08:57:00;17.40;67.00
29031;DHT22;16122;50.236;11.734;2023-04-24T08:59:27;17.40;66.90
29031;DHT22;16122;50.236;11.734;2023-04-24T09:01:55;17.40;66.90
29031;DHT22;16122;50.236;11.734;2023-04-24T09:04:22;17.40;66.60
29031;DHT22;16122;50.236;11.734;2023-04-24T09:06:51;17.40;66.60
29031;DHT22;16122;50.236;11.734;2023-04-24T09:09:17;17.40;66.60
29031;DHT22;16122;50.236;11.734;2023-04-24T09:11:44;17.40;66.60
29031;DHT22;16122;50.236;11.734;2023-04-24T09:14:11;17.50;66.60
29031;DHT22;16122;50.236;11.734;2023-04-24T09:16:38;17.40;66.50
29031;DHT22;16122;50.236;11.734;2023-04-24T09:19:04;17.40;66.60
29031;DHT22;16122;50.236;11.734;2023-04-24T09:21:34;17.40;66.70
29031;DHT22;16122;50.236;11.734;2023-04-24T09:24:02;17.40;66.30
29031;DHT22;16122;50.236;11.734;2023-04-24T09:26:34;17.40;66.10
29031;DHT22;16122;50.236;11.734;2023-04-24T09:29:01;17.40;66.00
29031;DHT22;16122;50.236;11.734;2023-04-24T09:31:28;17.40;65.60
29031;DHT22;16122;50.236;11.734;2023-04-24T09:33:59;17.50;66.40
29031;DHT22;16122;50.236;11.734;2023-04-24T09:36:30;17.40;66.00
29031;DHT22;16122;50.236;11.734;2023-04-24T09:39:02;17.40;66.00
29031;DHT22;16122;50.236;11.734;2023-04-24T09:41:28;17.40;65.40
29031;DHT22;16122;50.236;11.734;2023-04-24T09:43:55;17.50;66.30
29031;DHT22;16122;50.236;11.734;2023-04-24T09:46:29;17.40;65.50
29031;DHT22;16122;50.236;11.734;2023-04-24T09:48:56;17.40;66.10
29031;DHT22;16122;50.236;11.734;2023-04-24T09:51:36;17.40;66.10
29031;DHT22;16122;50.236;11.734;2023-04-24T09:54:03;17.40;66.00
29031;DHT22;16122;50.236;11.734;2023-04-24T09:56:32;17.40;66.00
29031;DHT22;16122;50.236;11.734;2023-04-24T09:59:07;17.50;65.80
29031;DHT22;16122;50.236;11.734;2023-04-24T10:01:34;17.40;65.60
29031;DHT22;16122;50.236;11.734;2023-04-24T10:04:00;17.50;66.00
29031;DHT22;16122;50.236;11.734;2023-04-24T10:06:34;17.50;65.90
29031;DHT22;16122;50.236;11.734;2023-04-24T10:09:01;17.50;65.90
29031;DHT22;16122;50.236;11.734;2023-04-24T10:11:28;17.40;65.50
29031;DHT22;16122;50.236;11.734;2023-04-24T10:13:55;17.50;65.60
29031;DHT22;16122;50.236;11.734;2023-04-24T10:16:23;17.40;65.10
29031;DHT22;16122;50.236;11.734;2023-04-24T10:18:49;17.50;65.00
29031;DHT22;16122;50.236;11.734;2023-04-24T10:21:17;17.50;64.70
29031;DHT22;16122;50.236;11.734;2023-04-24T10:23:43;17.50;64.60
29031;DHT22;16122;50.236;11.734;2023-04-24T10:26:09;17.50;64.90
29031;DHT22;16122;50.236;11.734;2023-04-24T10:28:36;17.50;67.10
29031;DHT22;16122;50.236;11.734;2023-04-24T10:31:02;17.60;68.30
29031;DHT22;16122;50.236;11.734;2023-04-24T10:33:30;17.60;68.80
29031;DHT22;16122;50.236;11.734;2023-04-24T10:35:57;17.50;68.80
29031;DHT22;16122;50.236;11.734;2023-04-24T10:38:27;17.60;68.90
29031;DHT22;16122;50.236;11.734;2023-04-24T10:41:09;17.60;68.80
29031;DHT22;16122;50.236;11.734;2023-04-24T10:43:40;17.50;68.60
29031;DHT22;16122;50.236;11.734;2023-04-24T10:46:06;17.50;68.80
29031;DHT22;16122;50.236;11.734;2023-04-24T10:48:33;17.50;68.70
29031;DHT22;16122;50.236;11.734;2023-04-24T10:50:59;17.50;68.50
29031;DHT22;16122;50.236;11.734;2023-04-24T10:53:30;17.50;68.70
29031;DHT22;16122;50.236;11.734;2023-04-24T10:56:05;17.50;68.60
29031;DHT22;16122;50.236;11.734;2023-04-24T10:58:45;17.50;68.50
29031;DHT22;16122;50.236;11.734;2023-04-24T11:03:55;17.50;68.50
29031;DHT22;16122;50.236;11.734;2023-04-24T11:09:07;17.50;68.30
29031;DHT22;16122;50.236;11.734;2023-04-24T11:11:35;17.50;67.50
29031;DHT22;16122;50.236;11.734;2023-04-24T11:14:07;17.50;68.20
29031;DHT22;16122;50.236;11.734;2023-04-24T11:26:58;17.50;67.70
29031;DHT22;16122;50.236;11.734;2023-04-24T11:34:52;17.50;67.70
29031;DHT22;16122;50.236;11.734;2023-04-24T11:37:18;17.50;67.70
29031;DHT22;16122;50.236;11.734;2023-04-24T11:39:44;17.50;68.10
29031;DHT22;16122;50.236;11.734;2023-04-24T11:42:10;17.50;67.90
29031;DHT22;16122;50.236;11.734;2023-04-24T11:44:36;17.50;68.00
29031;DHT22;16122;50.236;11.734;2023-04-24T11:47:05;17.50;67.90
29031;DHT22;16122;50.236;11.734;2023-04-24T11:49:32;17.50;68.00
29031;DHT22;16122;50.236;11.734;2023-04-24T11:51:59;17.60;68.00
29031;DHT22;16122;50.236;11.734;2023-04-24T11:54:26;17.60;68.40
29031;DHT22;16122;50.236;11.734;2023-04-24T11:56:52;17.60;68.50
29031;DHT22;16122;50.236;11.734;2023-04-24T11:59:18;17.60;68.80
29031;DHT22;16122;50.236;11.734;2023-04-24T12:01:45;17.60;69.10
29031;DHT22;16122;50.236;11.734;2023-04-24T12:04:12;17.60;70.40
29031;DHT22;16122;50.236;11.734;2023-04-24T12:06:38;17.60;70.60
29031;DHT22;16122;50.236;11.734;2023-04-24T12:09:04;17.60;70.70
29031;DHT22;16122;50.236;11.734;2023-04-24T12:11:30;17.60;71.60
29031;DHT22;16122;50.236;11.734;2023-04-24T12:13:56;17.60;71.80
29031;DHT22;16122;50.236;11.734;2023-04-24T12:16:22;17.60;71.90
29031;DHT22;16122;50.236;11.734;2023-04-24T12:18:51;17.50;72.20
29031;DHT22;16122;50.236;11.734;2023-04-24T12:21:19;17.50;72.40
29031;DHT22;16122;50.236;11.734;2023-04-24T12:23:46;17.50;73.00
29031;DHT22;16122;50.236;11.734;2023-04-24T12:26:16;17.60;72.90
29031;DHT22;16122;50.236;11.734;2023-04-24T12:28:47;17.60;72.60
29031;DHT22;16122;50.236;11.734;2023-04-24T12:31:14;17.50;72.40
29031;DHT22;16122;50.236;11.734;2023-04-24T12:33:40;17.50;72.40
29031;DHT22;16122;50.236;11.734;2023-04-24T12:36:10;17.50;72.30
29031;DHT22;16122;50.236;11.734;2023-04-24T12:38:36;17.50;72.40
29031;DHT22;16122;50.236;11.734;2023-04-24T12:41:11;17.50;72.30
29031;DHT22;16122;50.236;11.734;2023-04-24T12:43:37;17.60;72.00
29031;DHT22;16122;50.236;11.734;2023-04-24T12:46:04;17.50;71.90
29031;DHT22;16122;50.236;11.734;2023-04-24T12:48:30;17.50;71.90
29031;DHT22;16122;50.236;11.734;2023-04-24T12:50:59;17.50;72.00
29031;DHT22;16122;50.236;11.734;2023-04-24T12:53:28;17.50;71.80
29031;DHT22;16122;50.236;11.734;2023-04-24T12:55:57;17.60;71.80
29031;DHT22;16122;50.236;11.734;2023-04-24T12:58:24;17.50;71.70
29031;DHT22;16122;50.236;11.734;2023-04-24T13:00:50;17.60;71.40
29031;DHT22;16122;50.236;11.734;2023-04-24T13:03:17;17.60;71.30
29031;DHT22;16122;50.236;11.734;2023-04-24T13:05:43;17.60;71.30
29031;DHT22;16122;50.236;11.734;2023-04-24T13:08:09;17.60;71.30
29031;DHT22;16122;50.236;11.734;2023-04-24T13:10:35;17.50;71.10
29031;DHT22;16122;50.236;11.734;2023-04-24T13:13:01;17.60;70.80
29031;DHT22;16122;50.236;11.734;2023-04-24T13:15:27;17.60;70.70
29031;DHT22;16122;50.236;11.734;2023-04-24T13:17:53;17.60;70.40
29031;DHT22;16122;50.236;11.734;2023-04-24T13:20:19;17.60;70.30
29031;DHT22;16122;50.236;11.734;2023-04-24T13:22:45;17.60;70.40
29031;DHT22;16122;50.236;11.734;2023-04-24T13:25:11;17.60;70.20
29031;DHT22;16122;50.236;11.734;2023-04-24T13:27:38;17.60;70.00
29031;DHT22;16122;50.236;11.734;2023-04-24T13:30:05;17.60;69.60
29031;DHT22;16122;50.236;11.734;2023-04-24T13:32:32;17.60;69.60
29031;DHT22;16122;50.236;11.734;2023-04-24T13:34:59;17.60;69.60
29031;DHT22;16122;50.236;11.734;2023-04-24T13:37:24;17.60;69.50
29031;DHT22;16122;50.236;11.734;2023-04-24T13:39:50;17.60;69.60
29031;DHT22;16122;50.236;11.734;2023-04-24T13:42:16;17.60;69.40
29031;DHT22;16122;50.236;11.734;2023-04-24T13:44:42;17.60;69.10
29031;DHT22;16122;50.236;11.734;2023-04-24T13:47:08;17.60;68.90
29031;DHT22;16122;50.236;11.734;2023-04-24T13:49:33;17.60;68.90
29031;DHT22;16122;50.236;11.734;2023-04-24T13:51:59;17.60;69.00
29031;DHT22;16122;50.236;11.734;2023-04-24T13:54:25;17.60;69.00
29031;DHT22;16122;50.236;11.734;2023-04-24T13:56:52;17.60;69.10
29031;DHT22;16122;50.236;11.734;2023-04-24T13:59:21;17.60;68.90
29031;DHT22;16122;50.236;11.734;2023-04-24T14:01:47;17.60;68.90
29031;DHT22;16122;50.236;11.734;2023-04-24T14:04:13;17.60;68.80
29031;DHT22;16122;50.236;11.734;2023-04-24T14:06:39;17.60;68.70
29031;DHT22;16122;50.236;11.734;2023-04-24T14:09:06;17.60;68.40
29031;DHT22;16122;50.236;11.734;2023-04-24T14:11:33;17.60;68.40
29031;DHT22;16122;50.236;11.734;2023-04-24T14:13:59;17.60;68.30
29031;DHT22;16122;50.236;11.734;2023-04-24T14:16:25;17.60;68.30
29031;DHT22;16122;50.236;11.734;2023-04-24T14:18:51;17.60;68.50
29031;DHT22;16122;50.236;11.734;2023-04-24T14:21:17;17.60;68.00
29031;DHT22;16122;50.236;11.734;2023-04-24T14:23:43;17.60;68.10
29031;DHT22;16122;50.236;11.734;2023-04-24T14:26:09;17.60;68.00
29031;DHT22;16122;50.236;11.734;2023-04-24T14:28:35;17.50;68.00
29031;DHT22;16122;50.236;11.734;2023-04-24T14:31:02;17.50;67.80
29031;DHT22;16122;50.236;11.734;2023-04-24T14:33:28;17.50;67.60
29031;DHT22;16122;50.236;11.734;2023-04-24T14:35:53;17.50;67.50
29031;DHT22;16122;50.236;11.734;2023-04-24T14:38:20;17.50;67.80
29031;DHT22;16122;50.236;11.734;2023-04-24T14:40:46;17.50;67.40
29031;DHT22;16122;50.236;11.734;2023-04-24T14:43:12;17.50;67.60
29031;DHT22;16122;50.236;11.734;2023-04-24T14:45:38;17.50;67.50
29031;DHT22;16122;50.236;11.734;2023-04-24T14:48:05;17.50;67.70
29031;DHT22;16122;50.236;11.734;2023-04-24T14:50:31;17.50;68.20
29031;DHT22;16122;50.236;11.734;2023-04-24T14:52:57;17.50;67.50
29031;DHT22;16122;50.236;11.734;2023-04-24T14:55:23;17.50;67.40
29031;DHT22;16122;50.236;11.734;2023-04-24T14:57:50;17.40;67.30
29031;DHT22;16122;50.236;11.734;2023-04-24T15:00:16;17.50;67.40
29031;DHT22;16122;50.236;11.734;2023-04-24T15:02:42;17.50;67.40
29031;DHT22;16122;50.236;11.734;2023-04-24T15:05:10;17.50;67.30
29031;DHT22;16122;50.236;11.734;2023-04-24T15:07:37;17.40;67.90
29031;DHT22;16122;50.236;11.734;2023-04-24T15:10:03;17.40;67.20
29031;DHT22;16122;50.236;11.734;2023-04-24T15:12:29;17.40;67.00
29031;DHT22;16122;50.236;11.734;2023-04-24T15:14:57;17.40;67.30
29031;DHT22;16122;50.236;11.734;2023-04-24T15:17:23;17.40;66.80
29031;DHT22;16122;50.236;11.734;2023-04-24T15:19:48;17.40;66.80
29031;DHT22;16122;50.236;11.734;2023-04-24T15:22:14;17.40;66.70
29031;DHT22;16122;50.236;11.734;2023-04-24T15:24:40;17.40;66.90
29031;DHT22;16122;50.236;11.734;2023-04-24T15:27:09;17.40;66.80
29031;DHT22;16122;50.236;11.734;2023-04-24T15:29:36;17.40;66.70
29031;DHT22;16122;50.236;11.734;2023-04-24T15:32:02;17.40;66.90
29031;DHT22;16122;50.236;11.734;2023-04-24T15:34:28;17.40;66.50
29031;DHT22;16122;50.236;11.734;2023-04-24T15:36:54;17.40;66.90